RYR48F EDDN-EHEH
Flight info
| Callsign | RYR48F |
|---|---|
| Flight time | N/A |
| Altitude | 24000 |
| Route | SULUS1G SULUS L604 MASEK Z52 ARPEG Z850 EKTOT/N0395F200 Z850 PISAP T883 ROTEK |
| Aircraft | B738/M-SDE2E3FGHIRWXY/LB1 |
Departure
| Time | 2026-05-07 17:29 |
|---|---|
| Airport | Nuremberg Airport (EDDN) |
Arrival
| Time | N/A |
|---|---|
| Airport | Eindhoven Airport (EHEH) |
| Time | Latitude | Longitude | Altitude | Speed | Heading |
|---|---|---|---|---|---|
| 2026-05-07 16:57 | 49.49460 | 11.08308 | 1030 ft | 0 kts | 187° |
| 2026-05-07 16:58 | 49.49459 | 11.08308 | 1030 ft | 0 kts | 187° |
| 2026-05-07 17:09 | 49.49458 | 11.08308 | 1030 ft | 0 kts | 187° |
| 2026-05-07 17:15 | 49.49457 | 11.08308 | 1030 ft | 0 kts | 187° |
| 2026-05-07 17:22 | 49.49473 | 11.08311 | 1032 ft | 4 kts | 184° |
| 2026-05-07 17:23 | 49.49500 | 11.08311 | 1033 ft | 4 kts | 172° |
| 2026-05-07 17:23 | 49.49525 | 11.08301 | 1034 ft | 4 kts | 144° |
| 2026-05-07 17:23 | 49.49536 | 11.08279 | 1034 ft | 1 kts | 98° |
| 2026-05-07 17:26 | 49.49536 | 11.08280 | 1033 ft | 1 kts | 98° |
| 2026-05-07 17:26 | 49.49546 | 11.08335 | 1035 ft | 8 kts | 51° |
| 2026-05-07 17:26 | 49.49596 | 11.08362 | 1035 ft | 8 kts | 27° |
| 2026-05-07 17:26 | 49.49613 | 11.08459 | 1036 ft | 14 kts | 98° |
| 2026-05-07 17:27 | 49.49594 | 11.08650 | 1040 ft | 22 kts | 98° |
| 2026-05-07 17:27 | 49.49571 | 11.08891 | 1044 ft | 23 kts | 99° |
| 2026-05-07 17:27 | 49.49547 | 11.09128 | 1047 ft | 22 kts | 98° |
| 2026-05-07 17:27 | 49.49530 | 11.09319 | 1051 ft | 17 kts | 94° |
| 2026-05-07 17:28 | 49.49584 | 11.09469 | 1056 ft | 16 kts | 52° |
| 2026-05-07 17:28 | 49.49667 | 11.09573 | 1060 ft | 13 kts | 7° |
| 2026-05-07 17:28 | 49.49705 | 11.09484 | 1058 ft | 13 kts | 277° |
| 2026-05-07 17:28 | 49.49749 | 11.09032 | 1047 ft | 81 kts | 278° |
| 2026-05-07 17:29 | 49.49867 | 11.07823 | 1034 ft | 145 kts | 278° |
| 2026-05-07 17:29 | 49.50029 | 11.06160 | 1525 ft | 162 kts | 278° |
| 2026-05-07 17:29 | 49.50226 | 11.04382 | 2264 ft | 174 kts | 281° |
| 2026-05-07 17:29 | 49.50401 | 11.02531 | 3140 ft | 179 kts | 280° |
| 2026-05-07 17:30 | 49.50573 | 11.00589 | 3865 ft | 193 kts | 279° |
| 2026-05-07 17:30 | 49.50768 | 10.98398 | 4094 ft | 218 kts | 279° |
| 2026-05-07 17:30 | 49.51086 | 10.96057 | 4570 ft | 228 kts | 295° |
| 2026-05-07 17:30 | 49.52077 | 10.94146 | 5197 ft | 232 kts | 319° |
| 2026-05-07 17:31 | 49.53485 | 10.92886 | 5814 ft | 238 kts | 338° |
| 2026-05-07 17:31 | 49.54569 | 10.92520 | 6237 ft | 244 kts | 352° |
| 2026-05-07 17:31 | 49.56320 | 10.92468 | 6642 ft | 261 kts | 358° |
| 2026-05-07 17:31 | 49.58178 | 10.92546 | 7034 ft | 270 kts | 359° |
| 2026-05-07 17:32 | 49.60046 | 10.92628 | 7040 ft | 269 kts | 359° |
| 2026-05-07 17:32 | 49.61928 | 10.92698 | 7055 ft | 270 kts | 358° |
| 2026-05-07 17:32 | 49.63807 | 10.92761 | 7189 ft | 267 kts | 358° |
| 2026-05-07 17:32 | 49.65649 | 10.92493 | 7468 ft | 266 kts | 342° |
| 2026-05-07 17:33 | 49.67385 | 10.91661 | 8150 ft | 267 kts | 339° |
| 2026-05-07 17:33 | 49.69175 | 10.90769 | 9002 ft | 272 kts | 340° |
| 2026-05-07 17:33 | 49.70994 | 10.89878 | 9922 ft | 276 kts | 341° |
| 2026-05-07 17:33 | 49.72855 | 10.88983 | 10538 ft | 289 kts | 341° |
| 2026-05-07 17:34 | 49.74871 | 10.88024 | 10725 ft | 316 kts | 342° |
| 2026-05-07 17:34 | 49.77061 | 10.86995 | 10914 ft | 341 kts | 342° |
| 2026-05-07 17:34 | 49.79394 | 10.85910 | 11256 ft | 358 kts | 342° |
| 2026-05-07 17:34 | 49.81806 | 10.84795 | 11903 ft | 364 kts | 342° |
| 2026-05-07 17:35 | 49.84251 | 10.83668 | 12680 ft | 368 kts | 342° |
| 2026-05-07 17:35 | 49.86714 | 10.82533 | 13478 ft | 372 kts | 342° |
| 2026-05-07 17:35 | 49.89217 | 10.81378 | 14217 ft | 377 kts | 342° |
| 2026-05-07 17:35 | 49.91742 | 10.80212 | 14952 ft | 381 kts | 342° |
| 2026-05-07 17:36 | 49.94290 | 10.79033 | 15727 ft | 384 kts | 342° |
| 2026-05-07 17:36 | 49.96865 | 10.77840 | 16469 ft | 388 kts | 342° |
| 2026-05-07 17:36 | 49.99470 | 10.76633 | 17187 ft | 392 kts | 342° |
| 2026-05-07 17:36 | 50.02068 | 10.75427 | 17874 ft | 397 kts | 342° |
| 2026-05-07 17:37 | 50.04717 | 10.74140 | 18541 ft | 401 kts | 338° |
| 2026-05-07 17:37 | 50.07233 | 10.72247 | 19001 ft | 402 kts | 328° |
| 2026-05-07 17:37 | 50.09503 | 10.69718 | 19029 ft | 402 kts | 318° |
| 2026-05-07 17:37 | 50.11474 | 10.66625 | 19044 ft | 402 kts | 312° |
| 2026-05-07 17:38 | 50.13367 | 10.63422 | 19049 ft | 402 kts | 312° |
| 2026-05-07 17:38 | 50.15278 | 10.60235 | 19045 ft | 402 kts | 313° |
| 2026-05-07 17:38 | 50.17201 | 10.57071 | 19046 ft | 402 kts | 313° |
| 2026-05-07 17:38 | 50.19123 | 10.53884 | 19044 ft | 403 kts | 313° |
| 2026-05-07 17:39 | 50.21044 | 10.50676 | 19051 ft | 404 kts | 312° |
| 2026-05-07 17:39 | 50.22985 | 10.47440 | 19281 ft | 411 kts | 313° |
| 2026-05-07 17:39 | 50.24970 | 10.44237 | 20031 ft | 410 kts | 314° |
| 2026-05-07 17:39 | 50.26972 | 10.41056 | 20732 ft | 411 kts | 314° |
| 2026-05-07 17:40 | 50.28970 | 10.37886 | 21284 ft | 416 kts | 314° |
| 2026-05-07 17:40 | 50.31008 | 10.34635 | 21822 ft | 420 kts | 314° |
| 2026-05-07 17:40 | 50.33061 | 10.31345 | 22040 ft | 422 kts | 313° |
| 2026-05-07 17:40 | 50.35108 | 10.28049 | 22041 ft | 422 kts | 313° |
| 2026-05-07 17:41 | 50.37044 | 10.24560 | 22195 ft | 427 kts | 308° |
| 2026-05-07 17:41 | 50.38903 | 10.20910 | 22769 ft | 429 kts | 310° |
| 2026-05-07 17:41 | 50.40957 | 10.17529 | 23436 ft | 430 kts | 314° |
| 2026-05-07 17:41 | 50.43101 | 10.14215 | 23888 ft | 434 kts | 315° |
| 2026-05-07 17:42 | 50.45251 | 10.10838 | 24046 ft | 439 kts | 313° |
| 2026-05-07 17:42 | 50.47323 | 10.07331 | 24049 ft | 437 kts | 311° |
| 2026-05-07 17:42 | 50.49354 | 10.03790 | 24054 ft | 436 kts | 311° |
| 2026-05-07 17:42 | 50.51384 | 10.00263 | 24059 ft | 436 kts | 311° |
| 2026-05-07 17:43 | 50.53440 | 9.96726 | 24067 ft | 437 kts | 311° |
| 2026-05-07 17:43 | 50.55448 | 9.93225 | 24059 ft | 437 kts | 310° |
| 2026-05-07 17:43 | 50.57425 | 9.89519 | 24063 ft | 437 kts | 308° |
| 2026-05-07 17:43 | 50.59347 | 9.85803 | 24066 ft | 437 kts | 308° |
| 2026-05-07 17:44 | 50.61267 | 9.82085 | 24064 ft | 437 kts | 308° |
| 2026-05-07 17:44 | 50.63195 | 9.78392 | 24068 ft | 436 kts | 309° |
| 2026-05-07 17:44 | 50.65108 | 9.74752 | 24061 ft | 435 kts | 309° |
| 2026-05-07 17:44 | 50.67065 | 9.71032 | 24061 ft | 434 kts | 309° |
| 2026-05-07 17:45 | 50.68965 | 9.67390 | 24067 ft | 439 kts | 309° |
| 2026-05-07 17:45 | 50.70889 | 9.63609 | 24066 ft | 445 kts | 305° |
| 2026-05-07 17:45 | 50.72551 | 9.59477 | 24065 ft | 445 kts | 297° |
| 2026-05-07 17:45 | 50.73869 | 9.55069 | 24063 ft | 443 kts | 293° |
| 2026-05-07 17:46 | 50.75100 | 9.50614 | 24067 ft | 443 kts | 293° |
| 2026-05-07 17:46 | 50.76317 | 9.46134 | 24060 ft | 442 kts | 292° |
| 2026-05-07 17:46 | 50.77533 | 9.41644 | 24061 ft | 443 kts | 293° |
| 2026-05-07 17:46 | 50.78750 | 9.37176 | 24065 ft | 442 kts | 293° |
| 2026-05-07 17:47 | 50.79956 | 9.32767 | 24065 ft | 442 kts | 293° |
| 2026-05-07 17:47 | 50.81180 | 9.28308 | 24064 ft | 442 kts | 293° |
| 2026-05-07 17:47 | 50.82408 | 9.23842 | 24065 ft | 442 kts | 293° |
| 2026-05-07 17:47 | 50.83637 | 9.19374 | 24070 ft | 442 kts | 293° |
| 2026-05-07 17:48 | 50.84860 | 9.14921 | 24071 ft | 442 kts | 293° |
| 2026-05-07 17:48 | 50.86082 | 9.10465 | 24071 ft | 442 kts | 293° |
| 2026-05-07 17:48 | 50.87308 | 9.05988 | 24070 ft | 442 kts | 293° |
| 2026-05-07 17:48 | 50.88526 | 9.01529 | 24074 ft | 442 kts | 293° |
| 2026-05-07 17:49 | 50.89747 | 8.97051 | 24071 ft | 442 kts | 293° |
| 2026-05-07 17:49 | 50.90961 | 8.92587 | 24069 ft | 442 kts | 293° |
| 2026-05-07 17:49 | 50.92163 | 8.88159 | 24074 ft | 442 kts | 293° |
| 2026-05-07 17:49 | 50.93377 | 8.83681 | 24065 ft | 442 kts | 293° |
| 2026-05-07 17:50 | 50.94590 | 8.79197 | 24064 ft | 442 kts | 292° |
| 2026-05-07 17:50 | 50.95802 | 8.74704 | 24070 ft | 442 kts | 292° |
| 2026-05-07 17:50 | 50.97010 | 8.70220 | 24069 ft | 442 kts | 292° |
| 2026-05-07 17:50 | 50.98217 | 8.65731 | 24065 ft | 442 kts | 292° |
| 2026-05-07 17:51 | 50.99421 | 8.61245 | 24066 ft | 442 kts | 292° |
| 2026-05-07 17:51 | 51.00624 | 8.56753 | 24068 ft | 442 kts | 292° |
| 2026-05-07 17:51 | 51.01824 | 8.52265 | 24065 ft | 442 kts | 292° |
| 2026-05-07 17:51 | 51.03023 | 8.47770 | 24069 ft | 442 kts | 292° |
| 2026-05-07 17:52 | 51.04208 | 8.43323 | 24067 ft | 441 kts | 292° |
| 2026-05-07 17:52 | 51.05400 | 8.38835 | 24068 ft | 441 kts | 292° |
| 2026-05-07 17:52 | 51.06598 | 8.34321 | 24061 ft | 441 kts | 292° |
| 2026-05-07 17:52 | 51.07786 | 8.29830 | 24062 ft | 441 kts | 292° |
| 2026-05-07 17:53 | 51.08976 | 8.25329 | 24065 ft | 441 kts | 292° |
| 2026-05-07 17:53 | 51.10159 | 8.20840 | 24066 ft | 441 kts | 292° |
| 2026-05-07 17:53 | 51.11346 | 8.16332 | 24063 ft | 440 kts | 292° |
| 2026-05-07 17:53 | 51.12528 | 8.11834 | 24062 ft | 441 kts | 292° |
| 2026-05-07 17:54 | 51.13694 | 8.07385 | 24072 ft | 441 kts | 291° |
| 2026-05-07 17:54 | 51.14877 | 8.02865 | 24067 ft | 441 kts | 291° |
| 2026-05-07 17:54 | 51.16055 | 7.98355 | 24063 ft | 441 kts | 291° |
| 2026-05-07 17:54 | 51.17235 | 7.93825 | 24064 ft | 441 kts | 291° |
| 2026-05-07 17:55 | 51.18409 | 7.89312 | 24071 ft | 440 kts | 291° |
| 2026-05-07 17:55 | 51.19580 | 7.84799 | 24027 ft | 436 kts | 291° |
| 2026-05-07 17:55 | 51.20725 | 7.80381 | 23750 ft | 428 kts | 291° |
| 2026-05-07 17:55 | 51.21740 | 7.75966 | 23490 ft | 422 kts | 284° |
| 2026-05-07 17:56 | 51.22233 | 7.71369 | 23217 ft | 420 kts | 273° |
| 2026-05-07 17:56 | 51.22335 | 7.66782 | 22956 ft | 419 kts | 271° |
| 2026-05-07 17:56 | 51.22410 | 7.62146 | 22682 ft | 417 kts | 271° |
| 2026-05-07 17:56 | 51.22486 | 7.57498 | 22411 ft | 417 kts | 271° |
| 2026-05-07 17:57 | 51.22568 | 7.52880 | 22146 ft | 416 kts | 271° |
| 2026-05-07 17:57 | 51.22625 | 7.49842 | 21969 ft | 415 kts | 271° |
| 2026-05-07 17:57 | 51.22747 | 7.43697 | 21614 ft | 413 kts | 271° |
| 2026-05-07 17:57 | 51.22840 | 7.39120 | 21349 ft | 412 kts | 271° |
| 2026-05-07 17:58 | 51.22932 | 7.34560 | 21091 ft | 410 kts | 271° |
| 2026-05-07 17:58 | 51.23023 | 7.30028 | 20827 ft | 409 kts | 271° |
| 2026-05-07 17:58 | 51.23113 | 7.25500 | 20581 ft | 407 kts | 271° |
| 2026-05-07 17:58 | 51.23200 | 7.21000 | 20325 ft | 405 kts | 271° |
| 2026-05-07 17:59 | 51.23285 | 7.16512 | 20063 ft | 404 kts | 271° |
| 2026-05-07 17:59 | 51.23368 | 7.12027 | 19786 ft | 403 kts | 271° |
| 2026-05-07 17:59 | 51.23449 | 7.07561 | 19515 ft | 403 kts | 271° |
| 2026-05-07 17:59 | 51.23527 | 7.03154 | 19212 ft | 402 kts | 271° |
| 2026-05-07 18:00 | 51.23605 | 6.98695 | 18901 ft | 401 kts | 271° |
| 2026-05-07 18:00 | 51.23680 | 6.94262 | 18594 ft | 399 kts | 271° |
| 2026-05-07 18:00 | 51.23754 | 6.89837 | 18274 ft | 397 kts | 271° |
| 2026-05-07 18:00 | 51.23825 | 6.85448 | 17906 ft | 394 kts | 271° |
| 2026-05-07 18:01 | 51.23894 | 6.81080 | 17531 ft | 392 kts | 271° |
| 2026-05-07 18:01 | 51.23962 | 6.76734 | 17162 ft | 390 kts | 271° |
| 2026-05-07 18:01 | 51.24027 | 6.72416 | 16794 ft | 388 kts | 271° |
| 2026-05-07 18:01 | 51.24090 | 6.68132 | 16428 ft | 386 kts | 271° |
| 2026-05-07 18:02 | 51.24211 | 6.59623 | 15717 ft | 381 kts | 271° |
| 2026-05-07 18:02 | 51.24268 | 6.55455 | 15352 ft | 379 kts | 271° |
| 2026-05-07 18:02 | 51.24324 | 6.51262 | 15000 ft | 377 kts | 271° |
| 2026-05-07 18:03 | 51.24379 | 6.47083 | 14654 ft | 376 kts | 271° |
| 2026-05-07 18:03 | 51.24431 | 6.42912 | 14322 ft | 374 kts | 271° |
| 2026-05-07 18:03 | 51.24482 | 6.38779 | 13979 ft | 372 kts | 271° |
| 2026-05-07 18:03 | 51.24531 | 6.34659 | 13611 ft | 371 kts | 270° |
| 2026-05-07 18:04 | 51.24579 | 6.30536 | 13244 ft | 369 kts | 270° |
| 2026-05-07 18:04 | 51.24624 | 6.26451 | 12874 ft | 368 kts | 270° |
| 2026-05-07 18:04 | 51.24669 | 6.22374 | 12507 ft | 366 kts | 270° |
| 2026-05-07 18:04 | 51.24712 | 6.18318 | 12148 ft | 364 kts | 270° |
| 2026-05-07 18:05 | 51.24754 | 6.14290 | 11789 ft | 363 kts | 270° |
| 2026-05-07 18:05 | 51.24793 | 6.10272 | 11432 ft | 361 kts | 270° |
| 2026-05-07 18:05 | 51.24831 | 6.06326 | 11097 ft | 359 kts | 270° |
| 2026-05-07 18:05 | 51.25096 | 6.02381 | 10726 ft | 358 kts | 286° |
| 2026-05-07 18:06 | 51.26240 | 5.98875 | 10384 ft | 358 kts | 308° |
| 2026-05-07 18:06 | 51.28087 | 5.96219 | 10045 ft | 358 kts | 327° |